Stations météo

réclame
Mon MeteoGroup
Palacios de la Sierra, Espagne (8149): Température de l'air & dewpoint: 12.01.2020 14:00:00 - 18.01.2020 14:00:00 (CET)Palacios de la Sierra, Espagne (8149): Vitesse du vent & gusts: 12.01.2020 14:00:00 - 18.01.2020 14:00:00 (CET)Palacios de la Sierra, Espagne (8149): Direction du vent: 12.01.2020 14:00:00 - 18.01.2020 14:00:00 (CET)Palacios de la Sierra, Espagne (8149): visibility: 12.01.2020 14:00:00 - 18.01.2020 14:00:00 (CET)Palacios de la Sierra, Espagne (8149): Ensoleillement: 12.01.2020 14:00:00 - 18.01.2020 14:00:00 (CET)Palacios de la Sierra, Espagne (8149): Quantités de précipitations: 12.01.2020 14:00:00 - 18.01.2020 14:00:00 (CET)
Date & Time tt [°C] td [°C] ff [km/h] ff [knt] fx [km/h] fx [knt] dd vv [km] sd [min] rr [mm]
18.01.2020 14:00:00 - - - - - - - - - -
18.01.2020 13:00:00 4,6 1,3 10 5 24 13 SE 20 0 -
18.01.2020 12:00:00 4,5 0,9 6 3 11 6 ESE 20 0 0,0
18.01.2020 11:00:00 3,3 0,2 4 2 11 6 SE 20 0 0,0
18.01.2020 10:00:00 1,4 -1,0 3 1 81 44 S 20 0 0,0
18.01.2020 09:00:00 0,4 -1,2 3 1 9 5 SE 20 0 0,0
18.01.2020 08:00:00 0,1 -1,2 3 2 8 5 SE 20 0 0,0
18.01.2020 07:00:00 -0,5 -1,7 5 3 16 9 SSE 20 0 -
18.01.2020 06:00:00 -0,8 -2,2 1 1 11 6 SE 20 0 0,0
18.01.2020 05:00:00 -1,1 -2,5 9 5 13 7 S 20 0 0,0
18.01.2020 04:00:00 -1,4 -2,7 3 2 18 10 SE 20 0 0,0
18.01.2020 03:00:00 -1,7 -3,0 11 6 19 10 S 20 0 0,0
18.01.2020 02:00:00 -2,0 -3,3 8 5 18 10 SSE 20 0 0,0
18.01.2020 01:00:00 -2,1 -3,3 3 1 16 9 SSE 20 0 -
18.01.2020 00:00:00 -2,1 -3,3 6 3 16 9 S 20 0 0,0
17.01.2020 23:00:00 -1,3 -2,7 6 4 14 8 SSE 20 0 0,0
17.01.2020 22:00:00 -0,4 -2,5 6 3 15 8 SSE 20 0 0,0
17.01.2020 21:00:00 0,7 -2,0 4 2 13 7 SSE 20 0 0,0
17.01.2020 20:00:00 2,1 -1,4 1 1 9 5 SE 20 0 0,0
17.01.2020 19:00:00 3,5 -1,4 1 1 15 8 W 20 0 -
17.01.2020 18:00:00 4,3 -2,2 8 4 32 17 W 20 0 0,0
17.01.2020 17:00:00 5,5 -2,5 18 10 32 17 W 20 10 0,0
17.01.2020 16:00:00 6,4 -1,2 21 11 39 21 W 20 32 0,0
17.01.2020 15:00:00 6,2 -1,7 19 10 41 22 W 20 21 0,0
17.01.2020 14:00:00 6,1 -0,5 22 12 45 24 WNW 20 19 0,0
17.01.2020 13:00:00 5,9 0,4 18 10 39 21 W 20 18 -
17.01.2020 12:00:00 6,2 1,5 19 11 36 19 W 20 17 0,0
17.01.2020 11:00:00 5,1 1,7 21 12 42 23 W 20 7 0,0
17.01.2020 10:00:00 4,5 2,7 14 8 32 17 W 20 0 0,2
17.01.2020 09:00:00 4,4 2,7 17 9 41 22 W 20 0 0,2
17.01.2020 08:00:00 4,5 2,7 16 9 31 17 W 20 0 0,0
17.01.2020 07:00:00 4,6 2,9 13 7 34 18 W 4,1 0 -
17.01.2020 06:00:00 4,9 2,7 16 9 29 16 WSW 20 0 0,0
17.01.2020 05:00:00 4,7 2,7 8 4 27 15 W 20 0 0,0
17.01.2020 04:00:00 4,9 2,7 10 6 28 15 W 20 0 0,2
17.01.2020 03:00:00 3,9 2,5 3 2 8 4 W 8 0 0,8
17.01.2020 02:00:00 4,1 2,3 2 1 16 8 E 12 0 0,2
17.01.2020 01:00:00 4,2 2,3 3 1 8 5 NNE 20 0 -
17.01.2020 00:00:00 5,0 1,7 6 4 14 8 SE 20 0 0,2
16.01.2020 23:00:00 5,6 1,1 9 5 34 18 SW 20 0 0,2
16.01.2020 22:00:00 5,8 0,0 10 5 15 8 ESE 20 0 0,0
16.01.2020 21:00:00 6,3 0,0 8 4 16 8 E 20 0 0,0
16.01.2020 20:00:00 7,6 -0,7 5 3 36 19 ESE 20 0 0,0
16.01.2020 19:00:00 7,9 -1,0 4 2 19 10 SE 20 0 -
16.01.2020 18:00:00 9,3 0,0 9 5 34 18 WSW 20 1 0,0
16.01.2020 17:00:00 11,7 1,7 8 5 28 15 SW 20 24 0,0
16.01.2020 16:00:00 11,2 3,4 6 4 23 12 SW 20 9 0,0
16.01.2020 15:00:00 11,0 4,3 12 7 27 14 SSW 20 11 0,0
16.01.2020 14:00:00 10,6 3,8 10 5 30 16 SSW 20 24 0,0
16.01.2020 13:00:00 8,5 4,3 9 5 16 9 ESE 20 0 -
16.01.2020 12:00:00 7,1 3,9 7 4 14 8 SE 20 1 0,0
16.01.2020 11:00:00 5,7 3,2 7 4 11 6 E 20 27 0,0
16.01.2020 10:00:00 2,8 1,7 6 3 11 6 S 20 0 0,0
16.01.2020 09:00:00 1,3 0,4 8 4 11 6 E 20 0 0,0
16.01.2020 08:00:00 -0,5 -1,7 12 6 19 11 S 20 0 0,0
16.01.2020 07:00:00 0,3 -0,5 15 8 18 10 S 20 0 -
16.01.2020 06:00:00 0,2 -0,7 6 3 16 8 SSE 20 0 0,0
16.01.2020 05:00:00 0,2 -0,7 8 4 20 11 S 3,9 0 0,0
16.01.2020 04:00:00 1,5 0,4 17 9 20 11 S 19 0 0,0
16.01.2020 03:00:00 3,1 1,9 10 5 14 8 S 20 0 0,0
16.01.2020 02:00:00 4,3 3,0 9 5 17 9 S 20 0 0,0
16.01.2020 01:00:00 4,5 3,2 4 2 15 8 SSE 20 0 -
16.01.2020 00:00:00 3,9 2,5 3 1 13 7 SSE 17 0 0,0
15.01.2020 23:00:00 4,2 2,5 1 1 5 3 SE 20 0 0,0
15.01.2020 22:00:00 4,2 2,3 1 1 13 7 S 20 0 0,0
15.01.2020 21:00:00 4,6 2,5 8 5 21 11 S 20 0 0,0
15.01.2020 20:00:00 5,3 2,9 6 3 10 6 SSW 20 0 0,0
15.01.2020 19:00:00 6,6 3,0 5 3 21 11 NW 20 0 -
15.01.2020 18:00:00 7,2 3,4 12 6 24 13 W 20 0 0,0
15.01.2020 17:00:00 7,5 3,4 14 8 28 15 WSW 20 0 0,0
15.01.2020 16:00:00 7,7 3,4 4 2 29 16 WNW 20 0 0,0
15.01.2020 15:00:00 7,2 2,9 7 4 16 9 SW 20 0 0,0
15.01.2020 14:00:00 6,7 2,7 4 2 14 7 ESE 20 0 0,0
15.01.2020 13:00:00 5,5 2,7 4 2 10 5 SSW 20 0 -
15.01.2020 12:00:00 4,9 1,1 3 1 11 6 SSE 20 1 0,0
15.01.2020 11:00:00 2,3 0,2 5 3 12 7 E 17 0 0,0
15.01.2020 10:00:00 -0,3 -2,0 12 6 17 9 S 19 0 0,0
15.01.2020 09:00:00 0,0 -1,7 8 4 14 8 SSE 18 0 0,0
15.01.2020 08:00:00 -0,6 -2,0 6 3 17 9 ESE 18 0 0,0
15.01.2020 07:00:00 0,2 -1,4 8 4 19 10 S 18 0 -
15.01.2020 06:00:00 0,7 -1,7 7 4 11 6 S 20 0 0,0
15.01.2020 05:00:00 1,9 -1,2 4 2 17 9 NNE 20 0 0,0
15.01.2020 04:00:00 2,0 -1,2 10 5 23 13 S 20 0 0,0
15.01.2020 03:00:00 1,6 -1,0 8 4 17 9 S 20 0 0,0
15.01.2020 02:00:00 1,3 -0,7 7 4 15 8 S 20 0 0,0
15.01.2020 01:00:00 0,1 -1,7 2 1 14 7 ESE 20 0 -
15.01.2020 00:00:00 -0,3 -2,0 3 1 13 7 ESE 20 0 0,0
14.01.2020 23:00:00 -0,8 -2,5 8 4 16 9 SSE 20 0 0,0
14.01.2020 22:00:00 -1,0 -2,5 3 1 18 10 SSE 20 0 0,0
14.01.2020 21:00:00 -0,1 -2,2 6 3 16 9 SSE 20 0 0,0
14.01.2020 20:00:00 2,1 -1,0 4 2 11 6 SE 20 0 0,0
14.01.2020 19:00:00 2,5 -1,0 2 1 9 5 S 20 0 -
14.01.2020 18:00:00 4,2 -0,5 6 3 9 5 ESE 20 0 0,0
14.01.2020 17:00:00 5,0 -0,5 4 2 9 5 SSE 20 0 0,0
14.01.2020 16:00:00 4,9 -0,5 3 2 18 10 SW 20 6 0,0
14.01.2020 15:00:00 4,8 -0,3 6 3 18 10 WNW 20 1 0,0
14.01.2020 14:00:00 4,3 -0,5 9 5 22 12 WNW 20 22 0,0
14.01.2020 13:00:00 3,0 -0,5 1 1 10 6 NE 20 0 -
14.01.2020 12:00:00 2,5 -0,7 5 3 10 5 SW 20 11 0,0
14.01.2020 11:00:00 0,8 -1,0 3 2 6 3 N 8 1 0,0
14.01.2020 10:00:00 -1,3 -2,5 0 0 6 3 N 18 1 0,0
14.01.2020 09:00:00 -2,5 -3,6 2 1 7 4 SE 20 0 0,0
14.01.2020 08:00:00 -4,3 -5,7 2 1 14 7 ESE 18 0 0,0
14.01.2020 07:00:00 -3,9 -5,1 1 1 4 2 WSW 19 0 -
14.01.2020 06:00:00 -3,0 -4,2 1 1 15 8 ESE 20 0 0,0
14.01.2020 05:00:00 -4,0 -5,4 3 1 5 3 WNW 20 0 0,0
14.01.2020 04:00:00 -4,8 -6,0 3 1 16 8 SSE 20 0 0,0
14.01.2020 03:00:00 -5,9 -7,5 4 2 11 6 N 20 0 0,0
14.01.2020 02:00:00 -5,2 -6,7 3 1 13 7 E 15 0 0,0
14.01.2020 01:00:00 -3,7 -5,7 10 5 19 11 S 20 0 -
14.01.2020 00:00:00 -4,0 -5,7 4 2 15 8 E 20 0 0,0
13.01.2020 23:00:00 -3,2 -5,1 4 2 19 10 SE 20 0 0,0
13.01.2020 22:00:00 -3,5 -5,7 4 2 16 9 ESE 20 0 0,0
13.01.2020 21:00:00 -2,3 -4,8 5 3 16 9 ESE 20 0 0,0
13.01.2020 20:00:00 -1,2 -4,5 4 2 17 9 SSE 20 0 0,0
13.01.2020 19:00:00 -0,1 -4,5 3 1 10 6 E 20 0 -
13.01.2020 18:00:00 3,4 -3,6 5 3 8 5 SW 20 4 0,0
13.01.2020 17:00:00 6,5 -3,9 7 4 26 14 WNW 20 60 0,0
13.01.2020 16:00:00 7,0 -5,7 12 7 24 13 WNW 20 46 0,0
13.01.2020 15:00:00 6,9 -6,4 5 3 21 11 SW 20 35 0,0
13.01.2020 14:00:00 7,2 -5,4 13 7 19 10 NW 20 47 0,0
13.01.2020 13:00:00 6,8 -5,7 5 3 12 6 S 20 44 -
13.01.2020 12:00:00 2,9 -1,4 2 1 18 10 NNW 20 60 0,0
13.01.2020 11:00:00 -1,2 -3,9 8 5 18 10 SSE 20 50 0,0
13.01.2020 10:00:00 -3,0 -5,1 5 3 16 9 SSE 20 11 0,0
13.01.2020 09:00:00 -4,5 -6,4 7 4 19 11 S 20 0 0,0
13.01.2020 08:00:00 -4,4 -6,4 6 3 18 10 SSE 20 0 0,0
13.01.2020 07:00:00 -4,3 -6,0 6 3 19 10 SSE 20 0 -
13.01.2020 06:00:00 -4,7 -6,4 13 7 18 10 S 20 0 0,0
13.01.2020 05:00:00 -4,6 -6,0 3 2 16 8 SSE 20 0 0,0
13.01.2020 04:00:00 -4,5 -6,0 11 6 20 11 S 20 0 0,0
13.01.2020 03:00:00 -4,3 -5,7 10 5 17 9 S 20 0 0,0
13.01.2020 02:00:00 -3,6 -5,1 9 5 19 10 S 20 0 0,0
13.01.2020 01:00:00 -3,3 -4,5 5 3 11 6 S 20 0 -
13.01.2020 00:00:00 -2,8 -4,2 8 4 17 9 S 20 0 0,0
12.01.2020 23:00:00 -2,8 -4,2 6 4 14 7 SSE 15 0 0,0
12.01.2020 22:00:00 -2,3 -3,6 8 4 16 9 SSE 19 0 0,0
12.01.2020 21:00:00 -1,9 -3,3 4 2 8 5 SSE 20 0 0,0
12.01.2020 20:00:00 -0,9 -3,0 0 0 15 8 N 8 0 0,0
12.01.2020 19:00:00 1,0 -2,0 1 1 5 3 WSW 13 0 -
12.01.2020 18:00:00 3,6 -0,7 2 1 13 7 N 20 3 0,0
12.01.2020 17:00:00 6,5 -0,3 6 3 20 11 WNW 20 60 0,0
12.01.2020 16:00:00 6,2 0,2 11 6 23 12 WNW 20 60 0,0
12.01.2020 15:00:00 5,1 -0,3 - - - - - 20 60 0,0
12.01.2020 14:00:00 3,4 -0,3 6 3 17 9 NNW 17 52 0,0

tt = Température de l'air
td = dewpoint
ff = Vitesse du vent
fx = gusts
dd = Direction du vent
vv = visibility
sd = Ensoleillement
rr = Quantités de précipitations

stations d'obs. à proximité